Terminal Aerodrome Forecast
Issued by NWS

Home | Current Version | Previous Version | Text Only | Print | Product List | Glossary On
Versions: 1 2 3 4 5 6 7 8 9 10 11 12
000
FTUS43 KJKL 050521
TAFSJS
TAF
KSJS 050521Z 0506/0606 00000KT P6SM FEW060 FEW120
     FM051200 VRB05KT P6SM SCT060
     FM060000 VRB03KT P6SM FEW250=

USA.gov is the U.S. government's official web portal to all federal, state and local government web resources and services.